Pelham Manor, New York
Current Conditions -  °F | °C
As of 1:51 PM on Saturday 25 Oct 2014 (Local Time) from KLGA Reporting Station
Broken Clouds Broken Clouds  
Wind Chill: 64°   Ceiling: 25000
Heat Index: 64°   Visibility: 10mi
Dew Point: 40°   Wind: 8mph
Humidity: 41%   Direction: 220°SW
Pressure: 29.72"   Gusts: NA
Location:  40.9001°N, 73.8065°W
Report Text: KLGA 251751Z 22007KT 10SM FEW050 BKN250 18/04 A2972 RMK AO2 SLP065 T01780044 10183 20111 58040
Loading
Personal Weather Stations






























Interactive Weather Map
Tropical Storm Tracking
New forecast layout! Learn more

10-Day Weather Forecast

Advertisements
Track Severe Weather on mobile